Time;durP1;ratioP1;P1;durP2;ratioP2;P2;SDS_P1;SDS_P2;PMS_P1;PMS_P2;Temp;Humidity;BMP_temperature;BMP_pressure;BME280_temperature;BME280_humidity;BME280_pressure;Samples;Min_cycle;Max_cycle;Signal;HPM_P1;HPM_P2
2021/06/07 00:02:17;;;;;;;34.15;17.15;;;;;;;8.73;62.83;100149.20;1752581;80;21410;-65
2021/06/07 00:04:44;;;;;;;30.68;15.70;;;;;;;8.70;62.91;100144.09;1760404;80;20865;-66
2021/06/07 00:07:13;;;;;;;28.50;14.33;;;;;;;8.69;63.06;100146.31;1767912;80;20897;-66
2021/06/07 00:09:41;;;;;;;31.70;14.15;;;;;;;8.66;63.06;100147.72;1765787;80;20926;-65
2021/06/07 00:12:14;;;;;;;27.98;13.28;;;;;;;8.56;63.15;100141.09;1770071;80;21417;-66
2021/06/07 00:14:41;;;;;;;23.85;12.28;;;;;;;8.52;63.29;100136.91;1771010;80;20863;-66
2021/06/07 00:17:07;;;;;;;23.90;11.35;;;;;;;8.49;63.33;100146.11;1765465;80;20945;-66
2021/06/07 00:19:38;;;;;;;19.50;10.53;;;;;;;8.47;63.50;100144.00;1775809;80;21146;-65
2021/06/07 00:22:05;;;;;;;23.87;10.63;;;;;;;8.41;63.61;100145.50;1766094;79;21513;-66
2021/06/07 00:24:32;;;;;;;17.37;9.68;;;;;;;8.33;63.68;100143.56;1780912;80;21031;-66
2021/06/07 00:26:59;;;;;;;17.90;9.45;;;;;;;8.27;63.88;100140.25;1752808;80;21473;-66
2021/06/07 00:29:26;;;;;;;16.53;10.60;;;;;;;8.23;63.98;100142.55;1762989;80;20922;-66
2021/06/07 00:31:53;;;;;;;28.95;10.53;;;;;;;8.20;64.03;100141.31;1761784;80;20962;-66
2021/06/07 00:34:20;;;;;;;16.30;8.90;;;;;;;8.19;64.13;100137.48;1780637;80;20855;-66
2021/06/07 00:36:46;;;;;;;15.80;8.58;;;;;;;8.14;64.23;100136.31;1778352;80;20982;-66
2021/06/07 00:39:15;;;;;;;11.73;8.00;;;;;;;8.08;64.41;100123.50;1780000;80;20907;-66
2021/06/07 00:41:46;;;;;;;15.35;8.43;;;;;;;8.03;64.47;100127.98;1763306;80;20987;-66
2021/06/07 00:44:17;;;;;;;12.25;8.08;;;;;;;7.98;64.51;100129.86;1751204;80;20977;-66
2021/06/07 00:46:44;;;;;;;15.08;8.05;;;;;;;7.95;64.62;100130.81;1757879;80;20972;-66
2021/06/07 00:49:11;;;;;;;11.38;7.80;;;;;;;7.93;64.72;100130.02;1758477;79;21814;-66
2021/06/07 00:51:39;;;;;;;13.58;8.50;;;;;;;7.92;64.75;100131.36;1753500;80;21622;-66
2021/06/07 00:54:07;;;;;;;10.28;7.42;;;;;;;7.92;64.90;100135.25;1753457;80;21453;-66
2021/06/07 00:56:34;;;;;;;13.35;8.33;;;;;;;7.93;65.00;100144.78;1724761;80;20941;-66
2021/06/07 00:59:01;;;;;;;11.95;8.25;;;;;;;7.94;65.08;100137.38;1764311;80;20958;-66
2021/06/07 01:01:28;;;;;;;14.47;8.68;;;;;;;7.91;65.20;100133.56;1796231;78;21026;-66
2021/06/07 01:03:58;;;;;;;11.00;7.90;;;;;;;7.88;65.22;100132.36;1763301;80;20944;-66
2021/06/07 01:06:25;;;;;;;12.00;8.15;;;;;;;7.87;65.34;100131.52;1755857;79;20886;-66
2021/06/07 01:08:52;;;;;;;14.30;9.28;;;;;;;7.84;65.43;100133.75;1760698;80;21931;-66
2021/06/07 01:11:21;;;;;;;17.67;10.10;;;;;;;7.83;65.58;100129.43;1761357;80;22132;-66
2021/06/07 01:13:48;;;;;;;18.32;10.68;;;;;;;7.83;65.62;100126.83;1763530;80;21035;-66
2021/06/07 01:16:15;;;;;;;18.20;10.18;;;;;;;7.83;65.71;100120.33;1766909;80;20942;-66
2021/06/07 01:18:41;;;;;;;16.23;9.70;;;;;;;7.79;65.75;100122.63;1764991;79;20978;-66
2021/06/07 01:21:12;;;;;;;19.73;10.33;;;;;;;7.76;65.83;100125.33;1774934;80;20926;-66
2021/06/07 01:23:41;;;;;;;16.25;9.18;;;;;;;7.75;65.98;100119.70;1767555;79;20894;-66
2021/06/07 01:26:08;;;;;;;20.62;9.93;;;;;;;7.73;66.01;100126.72;1780884;80;21017;-66
2021/06/07 01:28:37;;;;;;;20.08;10.53;;;;;;;7.73;66.08;100121.52;1748220;80;21449;-66
2021/06/07 01:31:05;;;;;;;22.32;11.33;;;;;;;7.73;66.19;100128.02;1758795;80;20901;-66
2021/06/07 01:33:35;;;;;;;;;;;;;;;7.72;66.30;100130.19;1779528;78;20934;-65
2021/06/07 01:36:05;;;;;;;45.95;19.05;;;;;;;7.64;66.33;100120.46;1784073;78;20080;-65
2021/06/07 01:38:32;;;;;;;56.95;23.45;;;;;;;7.52;66.25;100120.83;1776185;79;20979;-66
2021/06/07 01:41:01;;;;;;;;;;;;;;;7.44;66.45;100117.59;1797830;78;21426;-66
2021/06/07 01:43:30;;;;;;;63.80;25.05;;;;;;;7.40;66.81;100122.88;1794411;78;20095;-66
2021/06/07 01:45:57;;;;;;;60.60;25.82;;;;;;;7.40;66.78;100120.27;1797712;78;20905;-66
2021/06/07 01:48:25;;;;;;;59.40;23.98;;;;;;;7.42;66.87;100116.77;1796468;78;27335;-65
2021/06/07 01:50:56;;;;;;;56.28;22.32;;;;;;;7.44;67.07;100120.19;1759201;80;21921;-66
2021/06/07 01:53:26;;;;;;;40.15;19.27;;;;;;;7.43;67.06;100118.50;1776469;78;21414;-65
2021/06/07 01:55:57;;;;;;;41.53;19.42;;;;;;;7.42;67.08;100108.98;1795823;78;21289;-66
2021/06/07 01:58:24;;;;;;;43.75;18.95;;;;;;;7.45;67.37;100115.38;1787002;80;21450;-66
2021/06/07 02:01:02;;;;;;;51.30;20.85;;;;;;;7.48;67.39;100108.80;1760730;80;26384;-65
2021/06/07 02:03:29;;;;;;;63.85;26.37;;;;;;;7.53;67.47;100113.42;1786814;79;21106;-65
2021/06/07 02:06:00;;;;;;;67.15;31.40;;;;;;;7.57;67.56;100113.75;1768275;79;20853;-66
2021/06/07 02:08:30;;;;;;;72.78;29.87;;;;;;;7.58;67.42;100118.05;1771259;79;20943;-66
2021/06/07 02:11:01;;;;;;;67.32;26.90;;;;;;;7.59;67.63;100111.97;1774050;79;20894;-65
2021/06/07 02:13:28;;;;;;;52.67;23.62;;;;;;;7.61;67.86;100111.45;1792322;79;20863;-66
2021/06/07 02:16:00;;;;;;;47.25;21.85;;;;;;;7.65;67.83;100116.14;1794119;79;21913;-66
2021/06/07 02:18:28;;;;;;;57.23;22.25;;;;;;;7.66;67.96;100107.44;1788633;78;21482;-66
2021/06/07 02:20:57;;;;;;;56.02;25.77;;;;;;;7.68;67.91;100109.09;1775149;78;20890;-66
2021/06/07 02:23:23;;;;;;;57.85;25.95;;;;;;;7.72;67.94;100110.70;1775512;78;20926;-65
2021/06/07 02:25:51;;;;;;;60.10;24.67;;;;;;;7.76;68.04;100108.42;1780632;78;20919;-66
2021/06/07 02:28:18;;;;;;;;;;;;;;;7.76;67.94;100109.73;1783678;78;21094;-65
2021/06/07 02:30:46;;;;;;;54.10;20.77;;;;;;;7.65;67.99;100087.09;1792514;79;26464;-65
2021/06/07 02:33:13;;;;;;;47.15;18.82;;;;;;;7.65;67.99;100087.09;1769986;79;20975;-66
2021/06/07 02:35:40;;;;;;;53.52;17.52;;;;;;;7.77;68.12;100102.32;1773933;78;22018;-66
2021/06/07 02:38:07;;;;;;;45.92;17.87;;;;;;;7.80;68.17;100102.23;1771938;79;21484;-66
2021/06/07 02:40:34;;;;;;;44.33;17.95;;;;;;;7.83;68.16;100102.59;1769810;79;21579;-66
2021/06/07 02:43:01;;;;;;;30.27;16.40;;;;;;;7.92;68.35;100107.95;1795190;78;20875;-66
2021/06/07 02:45:29;;;;;;;34.75;16.15;;;;;;;8.21;68.50;100106.62;1797550;78;20884;-66
2021/06/07 02:47:59;;;;;;;30.00;16.55;;;;;;;8.79;68.56;100096.08;1776122;80;20938;-66
2021/06/07 02:50:31;;;;;;;33.75;15.63;;;;;;;9.45;68.27;100098.98;1762046;80;20986;-66
2021/06/07 02:52:57;;;;;;;33.15;16.75;;;;;;;10.13;67.88;100088.58;1787113;78;21058;-66
2021/06/07 02:55:29;;;;;;;33.53;17.48;;;;;;;10.64;67.39;100091.32;1778970;79;20961;-66
2021/06/07 02:57:58;;;;;;;28.75;15.88;;;;;;;10.85;67.09;100086.52;1780568;80;20928;-67
2021/06/07 03:00:32;;;;;;;29.50;16.00;;;;;;;11.38;67.30;100091.16;1768940;79;21414;-67
2021/06/07 03:03:01;;;;;;;30.52;15.23;;;;;;;12.07;67.04;100088.02;1773280;79;20941;-66
2021/06/07 03:05:29;;;;;;;28.12;14.33;;;;;;;12.81;66.94;100084.87;1765693;80;21045;-67
2021/06/07 03:07:56;;;;;;;30.25;14.75;;;;;;;13.40;66.15;100083.09;1777606;79;20890;-67
2021/06/07 03:10:23;;;;;;;26.05;14.93;;;;;;;13.97;65.73;100081.31;1788369;79;20887;-67
2021/06/07 03:12:50;;;;;;;27.22;14.50;;;;;;;14.49;65.28;100071.80;1795271;78;26446;-67
2021/06/07 03:15:19;;;;;;;23.22;13.32;;;;;;;14.71;64.40;100073.22;1796432;78;20920;-67
2021/06/07 03:17:46;;;;;;;17.20;10.60;;;;;;;14.67;64.62;100075.64;1795493;78;21038;-67
2021/06/07 03:20:16;;;;;;;22.93;10.50;;;;;;;14.67;64.25;100074.33;1762093;80;20902;-67
2021/06/07 03:22:43;;;;;;;20.37;10.95;;;;;;;14.84;64.59;100063.66;1767700;79;20919;-67
2021/06/07 03:25:11;;;;;;;20.90;11.75;;;;;;;15.57;64.72;100067.55;1775758;79;20921;-66
2021/06/07 03:27:39;;;;;;;22.37;11.83;;;;;;;16.37;64.60;100051.08;1775393;79;20930;-67
2021/06/07 03:30:08;;;;;;;19.55;10.30;;;;;;;16.83;63.73;100057.24;1769235;79;21036;-67
2021/06/07 03:32:35;;;;;;;18.85;11.38;;;;;;;17.36;63.41;100053.53;1772754;79;21474;-67
2021/06/07 03:35:07;;;;;;;15.18;9.95;;;;;;;17.87;62.99;100057.91;1771366;79;20930;-67
2021/06/07 03:37:34;;;;;;;17.48;8.78;;;;;;;18.51;62.85;100058.45;1772451;79;21494;-68
2021/06/07 03:40:00;;;;;;;;;;;;;;;19.11;62.07;100058.38;1771750;79;20945;-67
2021/06/07 03:42:27;;;;;;;12.70;7.97;;;;;;;19.74;61.53;100056.92;1773776;79;21059;-67
2021/06/07 03:44:53;;;;;;;12.28;8.20;;;;;;;20.17;61.07;100051.30;1775674;79;20961;-67
2021/06/07 03:47:20;;;;;;;18.52;8.68;;;;;;;20.54;60.63;100053.09;1771198;79;21441;-68
2021/06/07 03:49:46;;;;;;;14.23;8.40;;;;;;;20.95;60.14;100050.92;1781841;79;21502;-68
2021/06/07 03:52:13;;;;;;;18.10;8.78;;;;;;;21.43;59.79;100048.17;1774576;79;20979;-67
2021/06/07 03:54:40;;;;;;;15.98;8.65;;;;;;;21.92;59.36;100044.30;1774532;79;24231;-68
2021/06/07 03:57:07;;;;;;;16.57;8.23;;;;;;;22.53;58.76;100040.09;1768861;79;28221;-68
2021/06/07 03:59:34;;;;;;;13.90;7.12;;;;;;;23.00;58.35;100042.84;1776182;79;20966;-70
2021/06/07 04:02:02;;;;;;;164.65;19.15;;;;;;;23.32;57.45;100039.77;1772049;79;20908;-68
2021/06/07 04:04:30;;;;;;;14.58;6.85;;;;;;;23.63;56.86;100039.48;1773154;79;20962;-68
2021/06/07 04:06:56;;;;;;;10.32;6.28;;;;;;;23.92;56.73;100035.81;1773468;79;21143;-68
2021/06/07 04:09:23;;;;;;;;;;;;;;;24.29;55.95;100033.86;1777160;79;20951;-68
2021/06/07 04:11:50;;;;;;;20.52;5.62;;;;;;;24.75;55.45;100035.08;1770197;79;20102;-68
2021/06/07 04:14:16;;;;;;;9.95;4.55;;;;;;;25.39;55.56;100031.62;1797107;78;20878;-68
2021/06/07 04:16:43;;;;;;;8.58;3.60;;;;;;;26.00;54.96;100031.02;1765429;80;20944;-69
2021/06/07 04:19:09;;;;;;;3.72;2.52;;;;;;;26.72;54.55;100028.52;1795825;78;22490;-68
2021/06/07 04:21:40;;;;;;;9.35;3.00;;;;;;;27.28;53.33;100028.11;1795739;78;21501;-68
2021/06/07 04:24:08;;;;;;;7.15;2.80;;;;;;;27.72;52.98;100024.87;1775308;79;20939;-68
2021/06/07 04:26:36;;;;;;;7.22;2.62;;;;;;;28.07;52.13;100030.73;1781293;80;20895;-69
2021/06/07 04:29:02;;;;;;;10.72;3.17;;;;;;;28.68;51.63;100032.95;1763759;80;20938;-68
2021/06/07 04:31:29;;;;;;;6.80;2.70;;;;;;;28.97;50.72;100032.66;1761706;80;21073;-69
2021/06/07 04:33:56;;;;;;;7.72;3.00;;;;;;;29.08;50.02;100030.89;1770839;78;21437;-68
2021/06/07 04:36:22;;;;;;;5.62;2.77;;;;;;;29.32;49.88;100038.33;1775001;79;20927;-68
2021/06/07 04:38:50;;;;;;;6.37;2.72;;;;;;;29.68;49.04;100036.23;1768390;79;20946;-68
2021/06/07 04:41:17;;;;;;;10.08;3.52;;;;;;;29.98;48.24;100027.56;1768968;80;20927;-68
2021/06/07 04:43:43;;;;;;;4.50;2.83;;;;;;;30.16;47.92;100029.80;1750982;80;21053;-69
2021/06/07 04:46:11;;;;;;;4.75;2.50;;;;;;;30.48;47.17;100025.27;1760300;80;20898;-68
2021/06/07 04:48:37;;;;;;;4.95;2.50;;;;;;;30.75;46.63;100028.15;1776912;78;20882;-68
2021/06/07 04:51:04;;;;;;;7.20;2.47;;;;;;;31.16;45.68;100017.97;1764103;78;20998;-68
2021/06/07 04:53:31;;;;;;;6.90;2.52;;;;;;;31.43;45.51;100023.84;1781924;80;21427;-68
2021/06/07 04:55:58;;;;;;;8.85;3.08;;;;;;;31.73;44.42;100019.98;1780585;78;21093;-68
2021/06/07 04:58:30;;;;;;;5.65;2.60;;;;;;;31.67;43.62;100024.33;1798800;78;21038;-68
2021/06/07 05:01:05;;;;;;;6.10;2.55;;;;;;;31.87;43.55;100018.49;1797473;78;20860;-68
2021/06/07 05:03:31;;;;;;;12.88;2.85;;;;;;;32.37;43.04;100018.15;1793745;77;21538;-69
2021/06/07 05:06:00;;;;;;;12.47;3.00;;;;;;;32.59;41.70;100015.27;1799592;78;20888;-68
2021/06/07 05:08:29;;;;;;;7.17;2.15;;;;;;;32.27;40.76;100018.58;1754513;80;22046;-68
2021/06/07 05:10:57;;;;;;;20.32;3.98;;;;;;;32.10;40.22;100018.14;1767121;80;21053;-68
2021/06/07 05:13:25;;;;;;;21.68;3.50;;;;;;;32.06;39.69;100021.45;1768259;80;20993;-68
2021/06/07 05:15:52;;;;;;;16.15;3.50;;;;;;;31.87;38.62;100015.80;1774218;78;21405;-69
2021/06/07 05:18:19;;;;;;;30.85;3.65;;;;;;;31.10;38.19;100014.20;1768914;79;21490;-67
2021/06/07 05:20:46;;;;;;;32.85;4.37;;;;;;;31.25;38.31;100015.41;1796295;78;21445;-68
2021/06/07 05:23:15;;;;;;;21.20;3.92;;;;;;;31.22;37.81;100017.16;1794112;78;20872;-68
2021/06/07 05:25:44;;;;;;;27.35;4.00;;;;;;;31.24;36.76;100017.80;1795584;79;21800;-67
2021/06/07 05:28:13;;;;;;;22.82;3.83;;;;;;;31.14;36.90;100020.85;1738539;79;20866;-68
2021/06/07 05:30:42;;;;;;;27.37;4.35;;;;;;;31.15;36.25;100017.66;1792605;78;21460;-68
2021/06/07 05:33:10;;;;;;;25.75;3.77;;;;;;;30.94;36.08;100015.34;1791794;79;21752;-68
2021/06/07 05:35:44;;;;;;;13.70;3.12;;;;;;;30.80;35.44;100018.99;1784172;79;20922;-68
2021/06/07 05:38:25;;;;;;;21.17;4.08;;;;;;;31.16;36.09;100016.63;1783946;78;20967;-68
2021/06/07 05:40:54;;;;;;;141.97;9.65;;;;;;;31.51;35.56;100015.23;1756615;79;20950;-68
2021/06/07 05:43:23;;;;;;;18.42;3.65;;;;;;;31.75;35.26;100012.00;1781609;79;20919;-66
2021/06/07 05:45:51;;;;;;;48.23;5.50;;;;;;;31.84;34.73;100016.17;1785076;78;21917;-68
2021/06/07 05:48:18;;;;;;;46.95;5.17;;;;;;;31.93;34.68;100014.17;1796606;78;20894;-66
2021/06/07 05:50:46;;;;;;;29.07;4.78;;;;;;;32.13;34.34;100014.20;1793017;78;21496;-64
2021/06/07 05:53:14;;;;;;;28.35;4.30;;;;;;;32.21;33.93;100015.84;1794844;78;21385;-66
2021/06/07 05:55:44;;;;;;;33.63;4.50;;;;;;;32.02;33.41;100017.52;1807052;78;20973;-66
2021/06/07 05:58:18;;;;;;;36.98;4.70;;;;;;;31.98;33.27;100018.94;1811008;78;21019;-66
2021/06/07 06:00:47;;;;;;;33.15;4.75;;;;;;;31.84;32.77;100016.17;1807598;78;20907;-66
2021/06/07 06:03:14;;;;;;;39.73;4.33;;;;;;;31.66;32.99;100018.63;1770063;79;20911;-66
2021/06/07 06:05:43;;;;;;;25.80;4.00;;;;;;;31.58;32.33;100020.98;1810655;78;20941;-65
2021/06/07 06:08:10;;;;;;;22.90;3.25;;;;;;;31.52;32.39;100022.32;1813798;78;20991;-66
2021/06/07 06:10:39;;;;;;;11.15;2.15;;;;;;;31.33;31.48;100026.56;1806680;78;21017;-65
2021/06/07 06:13:06;;;;;;;23.75;3.12;;;;;;;30.47;30.64;100018.71;1779615;79;20986;-66
2021/06/07 06:15:33;;;;;;;15.08;2.62;;;;;;;29.97;31.13;100020.49;1812698;78;21128;-67
2021/06/07 06:18:00;;;;;;;10.63;2.60;;;;;;;29.92;31.20;100020.26;1809681;78;21486;-66
2021/06/07 06:20:30;;;;;;;11.78;2.25;;;;;;;30.09;30.89;100026.53;1808975;78;20899;-65
2021/06/07 06:22:55;;;;;;;11.45;1.95;;;;;;;30.07;30.80;100029.09;1806644;78;21909;-66
2021/06/07 06:25:22;;;;;;;19.67;2.75;;;;;;;29.76;29.91;100019.97;1806170;78;21508;-65
2021/06/07 06:27:49;;;;;;;23.55;2.40;;;;;;;29.15;29.46;100010.28;1771635;79;20925;-66
2021/06/07 06:30:21;;;;;;;8.78;1.77;;;;;;;29.07;29.65;100026.51;1808871;78;20935;-66
2021/06/07 06:32:54;;;;;;;7.55;1.87;;;;;;;28.88;30.01;100027.05;1771332;79;21374;-66
2021/06/07 06:35:21;;;;;;;7.30;2.15;;;;;;;28.44;28.65;100026.45;1769495;80;21208;-66
2021/06/07 06:37:49;;;;;;;11.78;1.87;;;;;;;27.76;29.09;100034.25;1770522;79;20970;-66
2021/06/07 06:40:26;;;;;;;7.62;1.52;;;;;;;27.75;28.82;100039.27;1764048;79;20983;-66
2021/06/07 06:42:55;;;;;;;16.02;1.95;;;;;;;27.61;28.89;100026.60;1766217;80;20893;-65
2021/06/07 06:45:22;;;;;;;13.32;2.25;;;;;;;27.72;29.12;100036.11;1743679;80;20986;-65
2021/06/07 06:47:57;;;;;;;19.30;2.90;;;;;;;27.72;29.16;100031.57;1766972;80;21052;-65
2021/06/07 06:50:27;;;;;;;8.90;1.77;;;;;;;27.44;27.22;100041.42;1770646;79;20873;-65
2021/06/07 06:52:54;;;;;;;6.62;1.75;;;;;;;26.67;27.04;100042.95;1768283;80;20938;-66
2021/06/07 06:55:21;;;;;;;8.70;1.85;;;;;;;26.01;28.21;100048.22;1768150;80;20931;-66
2021/06/07 06:57:47;;;;;;;6.12;2.10;;;;;;;25.65;28.87;100049.80;1769994;80;20910;-66
2021/06/07 07:00:15;;;;;;;9.55;1.95;;;;;;;25.47;28.77;100052.22;1769068;80;21083;-66
2021/06/07 07:02:42;;;;;;;8.43;2.37;;;;;;;25.17;28.97;100063.25;1765254;80;21525;-66
2021/06/07 07:05:10;;;;;;;4.15;2.02;;;;;;;24.73;29.36;100060.62;1772505;80;21489;-67
2021/06/07 07:07:41;;;;;;;8.65;2.02;;;;;;;24.16;29.48;100066.75;1763884;80;21390;-66
2021/06/07 07:10:09;;;;;;;5.42;2.00;;;;;;;23.71;30.22;100064.93;1765247;78;21413;-66
2021/06/07 07:12:36;;;;;;;7.95;2.37;;;;;;;23.71;30.69;100068.93;1765129;79;20955;-66
2021/06/07 07:15:06;;;;;;;9.18;2.47;;;;;;;23.81;30.86;100063.06;1769629;78;20938;-65
2021/06/07 07:17:35;;;;;;;10.28;2.30;;;;;;;24.00;30.95;100067.91;1760854;79;20983;-66
2021/06/07 07:20:01;;;;;;;13.22;2.85;;;;;;;23.85;31.26;100065.75;1778370;79;20977;-66
2021/06/07 07:22:31;;;;;;;12.28;2.15;;;;;;;23.77;31.38;100060.33;1783355;79;21444;-65
2021/06/07 07:25:06;;;;;;;6.17;2.30;;;;;;;24.08;31.82;100068.00;1779818;79;21035;-65
2021/06/07 07:27:41;;;;;;;13.20;2.55;;;;;;;23.80;32.05;100069.36;1782200;79;20979;-65
2021/06/07 07:30:18;;;;;;;12.63;2.87;;;;;;;23.51;32.39;100065.49;1783184;79;20940;-64
2021/06/07 07:32:50;;;;;;;12.82;2.25;;;;;;;23.37;32.88;100065.48;1781985;78;20961;-65
2021/06/07 07:35:21;;;;;;;5.67;2.45;;;;;;;23.40;33.31;100071.84;1773718;79;20962;-65
2021/06/07 07:37:50;;;;;;;13.70;2.70;;;;;;;23.21;33.19;100073.25;1773600;78;21191;-65
2021/06/07 07:40:21;;;;;;;7.60;2.50;;;;;;;22.86;33.94;100072.06;1770158;79;20891;-65
2021/06/07 07:42:58;;;;;;;7.42;2.30;;;;;;;22.46;34.48;100077.08;1779541;78;21497;-65
2021/06/07 07:45:28;;;;;;;8.45;2.70;;;;;;;22.40;34.72;100079.44;1778772;78;21506;-65
2021/06/07 07:48:14;;;;;;;9.28;3.00;;;;;;;22.39;35.09;100073.28;1777179;79;20943;-65
2021/06/07 07:50:43;;;;;;;5.33;2.20;;;;;;;22.55;35.29;100074.06;1777912;79;21161;-65
2021/06/07 07:56:09;;;;;;;6.08;2.30;;;;;;;22.54;35.93;100070.53;1698792;83;20938;-65
2021/06/07 07:58:42;;;;;;;14.75;3.15;;;;;;;22.68;36.08;100076.41;1678543;83;20967;-65
2021/06/07 08:01:14;;;;;;;10.82;3.02;;;;;;;22.62;36.27;100074.33;1668225;84;21014;-65
2021/06/07 08:03:48;;;;;;;12.93;2.33;;;;;;;23.04;36.58;100075.34;1685812;83;21051;-65
2021/06/07 08:08:59;;;;;;;17.02;3.92;;;;;;;23.11;36.57;100069.80;1571571;90;20974;-66
2021/06/07 08:11:28;;;;;;;11.40;3.20;;;;;;;22.97;36.69;100073.26;1606684;87;20975;-65
2021/06/07 08:14:00;;;;;;;6.55;2.77;;;;;;;23.23;36.76;100073.95;1607665;87;22166;-65
2021/06/07 08:16:31;;;;;;;10.90;2.90;;;;;;;23.45;37.04;100074.08;1606136;87;21774;-65
2021/06/07 08:19:02;;;;;;;3.98;2.22;;;;;;;23.55;37.09;100068.69;1569016;90;21007;-67
2021/06/07 08:21:50;;;;;;;5.15;2.58;;;;;;;23.55;37.10;100078.86;1608687;87;20976;-66
2021/06/07 08:25:00;;;;;;;3.73;2.47;;;;;;;23.41;37.24;100069.55;1594034;87;21513;-65
2021/06/07 08:27:08;;;;;;;6.75;2.40;;;;;;;23.16;37.73;100068.84;1586193;88;21729;-65
2021/06/07 08:29:39;;;;;;;19.32;2.67;;;;;;;22.94;37.85;100074.84;1596885;88;21593;-64
2021/06/07 08:32:07;;;;;;;7.53;3.10;;;;;;;22.91;38.11;100068.95;1565774;90;21179;-66
2021/06/07 08:34:34;;;;;;;9.53;2.85;;;;;;;23.18;38.49;100059.73;1601688;87;21570;-66
2021/06/07 08:37:01;;;;;;;7.20;2.30;;;;;;;23.33;38.21;100070.77;1604369;87;20930;-68
2021/06/07 08:39:34;;;;;;;11.57;2.40;;;;;;;23.37;38.44;100063.31;1607196;87;21026;-66
2021/06/07 08:42:02;;;;;;;6.00;2.47;;;;;;;23.26;38.51;100059.00;1599667;87;21049;-64
2021/06/07 08:44:28;;;;;;;;;;;;;;;23.26;38.86;100067.00;1605841;87;20933;-64
2021/06/07 08:47:04;;;;;;;14.30;3.37;;;;;;;23.27;38.95;100064.67;1661685;82;20095;-66
2021/06/07 08:49:41;;;;;;;11.63;2.98;;;;;;;23.36;39.25;100059.82;1755584;79;20926;-65
2021/06/07 08:52:14;;;;;;;5.05;2.33;;;;;;;23.60;39.45;100055.77;1755191;80;20931;-66
2021/06/07 08:54:37;;;;;;;10.48;2.60;;;;;;;23.70;38.94;100067.23;1753807;79;21255;-65
2021/06/07 08:57:09;;;;;;;7.03;2.55;;;;;;;23.79;39.02;100062.36;1760348;80;20934;-66
2021/06/07 08:59:40;;;;;;;5.17;2.10;;;;;;;23.78;39.20;100075.36;1761726;80;20930;-65
2021/06/07 09:02:07;;;;;;;10.63;3.12;;;;;;;23.62;39.10;100066.63;1762364;80;20945;-66
2021/06/07 09:04:49;;;;;;;9.23;2.33;;;;;;;23.76;39.51;100072.00;1781186;78;20940;-68
2021/06/07 09:07:16;;;;;;;9.65;2.60;;;;;;;23.74;39.27;100068.63;1750776;80;20960;-67
2021/06/07 09:09:54;;;;;;;5.53;2.58;;;;;;;23.53;39.09;100067.53;1752767;80;20944;-68
2021/06/07 09:12:22;;;;;;;5.20;2.27;;;;;;;23.23;39.50;100073.95;1739184;79;21513;-66
2021/06/07 09:14:49;;;;;;;5.35;2.10;;;;;;;23.25;39.70;100064.00;1760337;80;20914;-66
2021/06/07 09:17:19;;;;;;;2.83;2.12;;;;;;;23.30;39.43;100069.73;1758765;80;20875;-66
2021/06/07 09:19:47;;;;;;;2.30;1.67;;;;;;;23.23;39.44;100067.30;1757752;79;21042;-65
2021/06/07 09:22:31;;;;;;;5.05;2.20;;;;;;;23.11;38.72;100063.97;1752142;79;21651;-67
2021/06/07 09:25:14;;;;;;;3.62;1.90;;;;;;;23.07;39.17;100064.39;1727970;80;20863;-68
2021/06/07 09:28:00;;;;;;;41.30;4.17;;;;;;;22.97;37.95;100069.77;1750407;79;20898;-67
2021/06/07 09:30:30;;;;;;;4.22;1.85;;;;;;;22.91;38.95;100061.83;1760105;80;21065;-67
2021/06/07 09:33:37;;;;;;;11.65;2.33;;;;;;;22.85;38.60;100077.02;1752468;80;21037;-65
2021/06/07 09:36:16;;;;;;;5.33;1.95;;;;;;;22.85;38.83;100063.70;1756404;79;20973;-67
2021/06/07 09:38:59;;;;;;;10.78;1.75;;;;;;;23.05;39.13;100061.03;1755821;80;21433;-67
2021/06/07 09:41:29;;;;;;;5.55;2.02;;;;;;;23.13;38.71;100066.47;1757363;79;20973;-66
2021/06/07 09:44:00;;;;;;;4.65;1.80;;;;;;;23.17;38.92;100067.87;1759874;79;21023;-66
2021/06/07 09:46:32;;;;;;;5.22;2.20;;;;;;;23.25;39.69;100073.32;1756436;79;21875;-64
2021/06/07 09:49:11;;;;;;;6.80;2.35;;;;;;;23.26;39.61;100059.00;1759010;78;21472;-66
2021/06/07 09:51:57;;;;;;;3.52;1.85;;;;;;;23.29;39.93;100075.19;1758316;79;21009;-66
2021/06/07 09:54:25;;;;;;;2.20;2.00;;;;;;;23.11;40.09;100063.14;1756326;80;20952;-65
2021/06/07 09:56:57;;;;;;;2.83;1.90;;;;;;;22.90;40.10;100077.43;1783271;78;20911;-66
2021/06/07 09:59:36;;;;;;;1.77;1.57;;;;;;;22.82;40.25;100070.65;1776956;78;21702;-66
2021/06/07 10:02:17;;;;;;;2.80;1.45;;;;;;;22.71;39.70;100070.80;1748684;80;21010;-66
2021/06/07 10:05:01;;;;;;;2.77;1.50;;;;;;;22.73;40.44;100087.48;1761990;80;21605;-66
2021/06/07 10:07:25;;;;;;;4.85;1.70;;;;;;;22.60;39.30;100069.62;1764079;79;20914;-66
2021/06/07 10:10:23;;;;;;;2.95;1.32;;;;;;;22.52;39.68;100067.20;1762137;79;21025;-66
2021/06/07 10:12:50;;;;;;;1.52;1.22;;;;;;;22.48;39.22;100063.62;1767766;79;22329;-67
2021/06/07 10:15:39;;;;;;;5.22;1.45;;;;;;;22.60;37.77;100072.28;1765644;80;20962;-67
2021/06/07 10:18:10;;;;;;;2.72;1.70;;;;;;;22.55;36.96;100078.05;1766852;79;21445;-68
2021/06/07 10:20:48;;;;;;;4.03;1.90;;;;;;;22.31;37.37;100083.78;1771529;79;21457;-66
2021/06/07 10:23:27;;;;;;;2.25;1.20;;;;;;;22.25;36.47;100072.38;1758859;80;21463;-68
2021/06/07 10:26:04;;;;;;;1.75;1.35;;;;;;;22.30;36.82;100084.77;1766917;79;21110;-67
2021/06/07 10:28:35;;;;;;;1.47;1.00;;;;;;;22.37;37.07;100080.55;1738419;79;20934;-66
2021/06/07 10:31:17;;;;;;;2.45;1.40;;;;;;;22.41;34.46;100071.33;1761796;79;21478;-66
2021/06/07 10:34:06;;;;;;;1.15;1.05;;;;;;;22.39;34.33;100088.41;1767696;79;21500;-68
2021/06/07 10:36:41;;;;;;;1.05;0.90;;;;;;;22.33;34.71;100074.68;1779521;79;20889;-67
2021/06/07 10:39:19;;;;;;;3.37;1.30;;;;;;;22.29;34.52;100080.41;1779730;78;21926;-66
2021/06/07 10:41:53;;;;;;;2.92;1.27;;;;;;;22.30;34.54;100090.09;1804654;78;20977;-66
2021/06/07 10:44:42;;;;;;;1.55;1.30;;;;;;;22.42;34.29;100078.32;1802854;78;20896;-66
2021/06/07 10:47:14;;;;;;;2.00;1.37;;;;;;;22.36;33.39;100084.20;1782613;80;21480;-65
2021/06/07 10:49:46;;;;;;;5.10;1.57;;;;;;;22.21;34.35;100085.58;1788310;79;21031;-66
2021/06/07 10:52:25;;;;;;;6.03;1.52;;;;;;;22.24;34.56;100078.19;1780554;79;21820;-66
2021/06/07 10:55:12;;;;;;;2.60;1.20;;;;;;;22.24;33.94;100080.01;1773716;79;20934;-68
2021/06/07 10:57:46;;;;;;;1.98;1.22;;;;;;;22.26;34.54;100078.03;1775969;79;20863;-67
2021/06/07 11:00:20;;;;;;;5.97;1.72;;;;;;;22.16;33.78;100073.18;1772218;79;21101;-66
2021/06/07 11:02:51;;;;;;;3.55;1.72;;;;;;;22.17;34.20;100081.50;1791406;78;21941;-66
2021/06/07 11:05:23;;;;;;;1.72;1.25;;;;;;;22.02;34.54;100071.27;1794664;78;21070;-66
2021/06/07 11:08:21;;;;;;;6.47;1.82;;;;;;;22.19;34.58;100071.60;1790740;78;20895;-66
2021/06/07 11:11:05;;;;;;;217.20;14.83;;;;;;;22.12;34.25;100080.11;1773814;78;43546;-67
2021/06/07 11:13:51;;;;;;;4.25;1.70;;;;;;;22.08;34.77;100081.34;1794520;78;21427;-67
2021/06/07 11:16:39;;;;;;;2.87;1.77;;;;;;;22.07;34.62;100073.03;1778614;79;20943;-67
2021/06/07 11:19:09;;;;;;;3.22;1.50;;;;;;;22.19;35.15;100087.56;1783156;79;21085;-66
2021/06/07 11:21:58;;;;;;;6.15;1.90;;;;;;;22.15;34.96;100082.11;1806921;78;20949;-66
2021/06/07 11:24:31;;;;;;;7.97;2.17;;;;;;;22.27;35.34;100079.73;1792747;78;21486;-67
2021/06/07 11:26:59;;;;;;;4.62;1.55;;;;;;;22.25;35.19;100079.02;1800466;78;20918;-68
2021/06/07 11:29:29;;;;;;;4.15;1.87;;;;;;;22.25;35.12;100081.68;1807085;78;20927;-66
2021/06/07 11:32:09;;;;;;;3.22;1.35;;;;;;;22.42;34.91;100067.67;1803984;78;21868;-66
2021/06/07 11:34:52;;;;;;;5.85;1.90;;;;;;;22.36;34.83;100070.91;1777152;78;20938;-66
2021/06/07 11:37:36;;;;;;;20.17;3.08;;;;;;;22.38;35.21;100067.63;1787251;80;20909;-67
2021/06/07 11:40:11;;;;;;;3.70;1.90;;;;;;;22.38;35.02;100066.30;1781033;78;20901;-66
2021/06/07 11:42:57;;;;;;;7.70;2.05;;;;;;;22.31;35.39;100071.81;1796455;78;20902;-65
2021/06/07 11:45:40;;;;;;;;;;;;;;;22.20;35.57;100078.59;1775751;79;21050;-66